createdAt,value
2018-09-03T00:00:46.614Z,16.30
2018-09-03T00:03:15.155Z,16.30
2018-09-03T00:05:43.837Z,16.40
2018-09-03T00:08:12.462Z,16.50
2018-09-03T00:10:41.047Z,16.50
2018-09-03T00:13:09.632Z,16.50
2018-09-03T00:15:38.238Z,16.40
2018-09-03T00:18:06.820Z,16.40
2018-09-03T00:20:35.500Z,16.30
2018-09-03T00:23:04.102Z,16.30
2018-09-03T00:25:32.664Z,16.40
2018-09-03T00:28:01.210Z,16.20
2018-09-03T00:30:29.745Z,16.30
2018-09-03T00:33:03.607Z,16.30
2018-09-03T00:35:37.571Z,16.30
2018-09-03T00:38:11.594Z,16.50
2018-09-03T00:40:45.522Z,16.60
2018-09-03T00:43:19.497Z,16.50
2018-09-03T00:45:53.423Z,16.40
2018-09-03T00:48:22.024Z,16.40
2018-09-03T00:50:50.732Z,16.30
2018-09-03T00:53:19.294Z,16.40
2018-09-03T00:55:47.923Z,16.30
2018-09-03T00:58:16.640Z,16.40
2018-09-03T01:00:45.171Z,16.50
2018-09-03T01:03:13.729Z,16.50
2018-09-03T01:05:42.252Z,16.40
2018-09-03T01:08:10.888Z,16.40
2018-09-03T01:10:39.447Z,16.40
2018-09-03T01:13:08.050Z,16.20
2018-09-03T01:15:36.678Z,16.20
2018-09-03T01:18:05.423Z,16.20
2018-09-03T01:20:34.067Z,16.10
2018-09-03T01:23:02.607Z,16.20
2018-09-03T01:25:31.219Z,16.30
2018-09-03T01:27:59.735Z,16.40
2018-09-03T01:30:28.317Z,16.40
2018-09-03T01:32:56.914Z,16.40
2018-09-03T01:35:25.487Z,16.50
2018-09-03T01:37:54.012Z,16.30
2018-09-03T01:40:22.582Z,16.40
2018-09-03T01:42:51.149Z,16.30
2018-09-03T01:45:19.726Z,16.40
2018-09-03T01:47:48.311Z,16.50
2018-09-03T01:50:16.882Z,16.50
2018-09-03T01:52:45.447Z,16.40
2018-09-03T01:55:13.995Z,16.30
2018-09-03T01:57:42.633Z,16.40
2018-09-03T02:00:11.226Z,16.50
2018-09-03T02:02:39.868Z,16.60
2018-09-03T02:05:08.476Z,16.70
2018-09-03T02:07:37.034Z,16.70
2018-09-03T02:10:05.639Z,16.70
2018-09-03T02:12:34.190Z,16.70
2018-09-03T02:15:02.828Z,16.70
2018-09-03T02:17:31.518Z,16.60
2018-09-03T02:20:00.264Z,16.70
2018-09-03T02:22:28.835Z,16.70
2018-09-03T02:24:57.486Z,16.70
2018-09-03T02:27:26.040Z,16.60
2018-09-03T02:29:54.575Z,16.70
2018-09-03T02:32:23.127Z,16.60
2018-09-03T02:34:51.747Z,16.70
2018-09-03T02:37:20.287Z,16.70
2018-09-03T02:39:48.828Z,16.70
2018-09-03T02:42:17.395Z,16.70
2018-09-03T02:44:45.951Z,16.60
2018-09-03T02:47:14.656Z,16.50
2018-09-03T02:49:43.253Z,16.50
2018-09-03T02:52:11.848Z,16.50
2018-09-03T02:54:40.397Z,16.40
2018-09-03T02:57:09.016Z,16.40
2018-09-03T02:59:37.611Z,16.50
2018-09-03T03:02:06.498Z,16.50
2018-09-03T03:04:35.126Z,16.70
2018-09-03T03:07:03.741Z,16.70
2018-09-03T03:09:32.854Z,16.60
2018-09-03T03:12:01.441Z,16.60
2018-09-03T03:14:30.139Z,16.50
2018-09-03T03:16:58.709Z,16.50
2018-09-03T03:19:27.302Z,16.60
2018-09-03T03:21:55.987Z,16.60
2018-09-03T03:24:24.581Z,16.50
2018-09-03T03:26:53.152Z,16.50
2018-09-03T03:29:21.730Z,16.50
2018-09-03T03:31:50.304Z,16.60
2018-09-03T03:34:18.871Z,16.60
2018-09-03T03:36:47.443Z,16.50
2018-09-03T03:39:16.003Z,16.50
2018-09-03T03:41:44.615Z,16.60
2018-09-03T03:44:13.147Z,16.60
2018-09-03T03:46:41.835Z,16.60
2018-09-03T03:49:10.437Z,16.50
2018-09-03T03:51:39.044Z,16.60
2018-09-03T03:54:07.674Z,16.60
2018-09-03T03:56:36.298Z,16.40
2018-09-03T03:59:05.001Z,16.40
2018-09-03T04:01:33.591Z,16.30
2018-09-03T04:04:02.338Z,16.40
2018-09-03T04:06:30.915Z,16.30
2018-09-03T04:08:59.800Z,16.50
2018-09-03T04:11:28.382Z,16.30
2018-09-03T04:13:57.054Z,16.30
2018-09-03T04:16:25.765Z,16.30
2018-09-03T04:18:54.318Z,16.40
2018-09-03T04:21:22.989Z,16.50
2018-09-03T04:23:51.551Z,16.40
2018-09-03T04:26:20.170Z,16.40
2018-09-03T04:28:48.941Z,16.40
2018-09-03T04:31:18.312Z,16.50
2018-09-03T04:33:47.000Z,16.50
2018-09-03T04:36:15.613Z,16.40
2018-09-03T04:38:44.399Z,16.40
2018-09-03T04:41:13.015Z,16.20
2018-09-03T04:43:41.656Z,16.20
2018-09-03T04:46:10.236Z,16.30
2018-09-03T04:48:38.949Z,16.40
2018-09-03T04:51:07.662Z,16.40
2018-09-03T04:53:36.324Z,16.40
2018-09-03T04:56:04.983Z,16.50
2018-09-03T04:58:33.614Z,16.60
2018-09-03T05:01:02.210Z,16.60
2018-09-03T05:03:30.805Z,16.50
2018-09-03T05:05:59.468Z,16.60
2018-09-03T05:08:28.036Z,16.60
2018-09-03T05:10:56.648Z,16.50
2018-09-03T05:13:25.202Z,16.40
2018-09-03T05:15:53.867Z,16.50
2018-09-03T05:18:22.492Z,16.60
2018-09-03T05:20:51.170Z,16.50
2018-09-03T05:23:19.790Z,16.40
2018-09-03T05:25:48.401Z,16.40
2018-09-03T05:28:16.975Z,16.50
2018-09-03T05:30:45.662Z,16.50
2018-09-03T05:33:14.309Z,16.60
2018-09-03T05:35:42.941Z,16.50
2018-09-03T05:38:11.533Z,16.60
2018-09-03T05:40:40.180Z,16.70
2018-09-03T05:43:08.867Z,16.70
2018-09-03T05:45:37.509Z,16.70
2018-09-03T05:48:06.549Z,16.60
2018-09-03T05:50:35.251Z,16.50
2018-09-03T05:53:03.873Z,16.70
2018-09-03T05:55:32.520Z,16.80
2018-09-03T05:58:01.106Z,16.80
2018-09-03T06:00:29.759Z,16.90
2018-09-03T06:02:58.342Z,16.90
2018-09-03T06:05:26.994Z,16.80
2018-09-03T06:07:55.643Z,16.80
2018-09-03T06:10:24.376Z,16.90
2018-09-03T06:12:52.944Z,16.90
2018-09-03T06:15:21.597Z,17.00
2018-09-03T06:17:50.276Z,16.90
2018-09-03T06:20:18.838Z,16.90
2018-09-03T06:22:47.450Z,16.80
2018-09-03T06:25:16.062Z,17.00
2018-09-03T06:27:44.681Z,16.90
2018-09-03T06:30:13.309Z,16.90
2018-09-03T06:32:42.002Z,17.00
2018-09-03T06:35:10.630Z,16.90
2018-09-03T06:37:39.371Z,16.70
2018-09-03T06:40:08.072Z,16.50
2018-09-03T06:42:36.769Z,16.60
2018-09-03T06:45:05.539Z,16.70
2018-09-03T06:47:34.232Z,17.00
2018-09-03T06:50:02.898Z,17.00
2018-09-03T06:52:31.530Z,17.00
2018-09-03T06:55:00.156Z,17.20
2018-09-03T06:57:28.854Z,17.30
2018-09-03T06:59:57.481Z,17.40
2018-09-03T07:02:26.159Z,17.30
2018-09-03T07:04:54.767Z,17.40
2018-09-03T07:07:23.405Z,17.60
2018-09-03T07:09:52.020Z,17.60
2018-09-03T07:12:20.735Z,17.70
2018-09-03T07:14:49.420Z,17.60
2018-09-03T07:17:18.015Z,17.70
2018-09-03T07:19:46.584Z,17.60
2018-09-03T07:22:15.142Z,17.70
2018-09-03T07:24:43.820Z,17.90
2018-09-03T07:27:12.443Z,18.10
2018-09-03T07:29:41.221Z,18.00
2018-09-03T07:32:09.897Z,18.10
2018-09-03T07:34:38.566Z,18.00
2018-09-03T07:37:07.202Z,18.20
2018-09-03T07:39:35.811Z,18.10
2018-09-03T07:42:04.471Z,18.00
2018-09-03T07:44:33.065Z,17.80
2018-09-03T07:47:01.679Z,17.90
2018-09-03T07:49:30.303Z,17.80
2018-09-03T07:51:58.908Z,18.00
2018-09-03T07:54:27.516Z,18.00
2018-09-03T07:56:56.125Z,17.90
2018-09-03T07:59:24.745Z,18.00
2018-09-03T08:01:53.397Z,18.00
2018-09-03T08:04:21.968Z,18.20
2018-09-03T08:06:50.645Z,18.10
2018-09-03T08:09:19.223Z,18.10
2018-09-03T08:11:47.844Z,18.00
2018-09-03T08:14:16.433Z,17.90
2018-09-03T08:16:45.061Z,17.80
2018-09-03T08:19:13.664Z,18.20
2018-09-03T08:21:42.341Z,18.20
2018-09-03T08:24:10.974Z,18.80
2018-09-03T08:26:39.626Z,19.20
2018-09-03T08:29:08.196Z,19.30
2018-09-03T08:31:36.812Z,19.10
2018-09-03T08:34:05.510Z,18.70
2018-09-03T08:36:34.098Z,18.90
2018-09-03T08:39:02.873Z,19.00
2018-09-03T08:41:31.544Z,19.50
2018-09-03T08:44:00.119Z,19.80
2018-09-03T08:46:29.010Z,19.90
2018-09-03T08:48:57.665Z,20.00
2018-09-03T08:51:26.331Z,20.20
2018-09-03T08:53:55.131Z,20.30
2018-09-03T08:56:23.861Z,20.50
2018-09-03T08:58:52.426Z,20.30
2018-09-03T09:01:21.117Z,20.40
2018-09-03T09:03:49.675Z,20.60
2018-09-03T09:06:18.331Z,20.60
2018-09-03T09:08:46.997Z,20.80
2018-09-03T09:11:15.724Z,20.80
2018-09-03T09:13:44.483Z,20.70
2018-09-03T09:16:13.044Z,20.90
2018-09-03T09:18:41.696Z,21.20
2018-09-03T09:21:10.361Z,21.30
2018-09-03T09:23:39.070Z,21.30
2018-09-03T09:26:07.735Z,21.10
2018-09-03T09:28:36.366Z,20.60
2018-09-03T09:31:04.984Z,20.80
2018-09-03T09:33:33.706Z,20.90
2018-09-03T09:36:02.344Z,20.80
2018-09-03T09:38:30.959Z,21.20
2018-09-03T09:40:59.607Z,21.20
2018-09-03T09:43:28.206Z,21.10
2018-09-03T09:45:56.990Z,20.20
2018-09-03T09:48:25.616Z,20.70
2018-09-03T09:50:54.279Z,21.10
2018-09-03T09:53:22.945Z,21.60
2018-09-03T09:55:51.750Z,21.90
2018-09-03T09:58:20.384Z,22.00
2018-09-03T10:00:54.404Z,22.00
2018-09-03T10:03:23.096Z,22.00
2018-09-03T10:05:51.688Z,22.20
2018-09-03T10:08:20.346Z,22.30
2018-09-03T10:10:48.971Z,22.10
2018-09-03T10:13:17.753Z,22.00
2018-09-03T10:15:46.388Z,21.80
2018-09-03T10:18:14.992Z,22.10
2018-09-03T10:20:43.629Z,22.10
2018-09-03T10:23:13.401Z,21.80
2018-09-03T10:25:42.119Z,21.60
2018-09-03T10:28:10.810Z,21.20
2018-09-03T10:30:39.498Z,21.30
2018-09-03T10:33:08.381Z,21.30
2018-09-03T10:35:36.981Z,21.10
2018-09-03T10:38:05.663Z,21.30
2018-09-03T10:40:34.316Z,21.20
2018-09-03T10:43:02.921Z,21.00
2018-09-03T10:45:31.536Z,20.90
2018-09-03T10:48:00.160Z,20.90
2018-09-03T10:50:28.764Z,20.60
2018-09-03T10:52:57.348Z,20.70
2018-09-03T10:55:26.071Z,20.90
2018-09-03T10:57:54.739Z,21.10
2018-09-03T11:00:23.380Z,21.10
2018-09-03T11:02:52.057Z,21.10
2018-09-03T11:05:20.726Z,21.40
2018-09-03T11:07:49.408Z,21.30
2018-09-03T11:10:18.065Z,21.60
2018-09-03T11:12:46.837Z,21.90
2018-09-03T11:15:15.548Z,21.50
2018-09-03T11:17:44.510Z,21.60
2018-09-03T11:20:17.838Z,21.60
2018-09-03T11:22:46.541Z,21.70
2018-09-03T11:25:15.325Z,21.60
2018-09-03T11:27:44.049Z,21.30
2018-09-03T11:30:12.800Z,21.40
2018-09-03T11:32:45.671Z,21.50
2018-09-03T11:35:14.392Z,21.40
2018-09-03T11:37:43.059Z,21.30
2018-09-03T11:40:11.765Z,21.40
2018-09-03T11:42:40.409Z,21.20
2018-09-03T11:45:09.077Z,20.80
2018-09-03T11:47:37.917Z,20.90
2018-09-03T11:50:06.706Z,20.80
2018-09-03T11:52:35.450Z,21.20
2018-09-03T11:55:04.174Z,21.30
2018-09-03T11:57:32.995Z,21.20
2018-09-03T12:00:01.875Z,20.80
2018-09-03T12:02:30.504Z,20.80
2018-09-03T12:04:59.078Z,20.70
2018-09-03T12:07:27.834Z,20.80
2018-09-03T12:09:56.494Z,20.80
2018-09-03T12:12:25.136Z,20.80
2018-09-03T12:14:56.311Z,20.60
2018-09-03T12:17:25.176Z,20.80
2018-09-03T12:19:53.795Z,20.80
2018-09-03T12:22:22.481Z,20.90
2018-09-03T12:24:51.140Z,20.90
2018-09-03T12:27:19.815Z,21.30
2018-09-03T12:29:48.426Z,21.20
2018-09-03T12:32:17.099Z,21.60
2018-09-03T12:34:45.819Z,21.40
2018-09-03T12:37:20.710Z,20.60
2018-09-03T12:39:50.415Z,21.00
2018-09-03T12:42:19.146Z,21.50
2018-09-03T12:44:47.744Z,21.40
2018-09-03T12:47:16.464Z,21.70
2018-09-03T12:49:45.414Z,21.70
2018-09-03T12:52:14.009Z,22.00
2018-09-03T12:54:42.654Z,21.90
2018-09-03T12:57:12.354Z,22.10
2018-09-03T12:59:41.220Z,21.50
2018-09-03T13:02:10.502Z,21.40
2018-09-03T13:04:39.307Z,21.00
2018-09-03T13:07:07.890Z,21.30
2018-09-03T13:09:36.479Z,20.80
2018-09-03T13:12:05.205Z,21.00
2018-09-03T13:14:34.008Z,20.90
2018-09-03T13:17:02.622Z,20.60
2018-09-03T13:19:31.301Z,20.70
2018-09-03T13:21:59.940Z,20.80
2018-09-03T13:24:28.731Z,21.00
2018-09-03T13:26:57.420Z,21.20
2018-09-03T13:29:26.058Z,21.40
2018-09-03T13:31:54.660Z,21.50
2018-09-03T13:34:23.317Z,21.10
2018-09-03T13:36:51.914Z,21.40
2018-09-03T13:39:20.569Z,21.40
2018-09-03T13:41:49.150Z,21.10
2018-09-03T13:44:17.744Z,21.20
2018-09-03T13:46:46.363Z,21.20
2018-09-03T13:49:15.042Z,21.20
2018-09-03T13:51:43.662Z,20.00
2018-09-03T13:54:12.438Z,19.70
2018-09-03T13:56:41.226Z,19.30
2018-09-03T13:59:09.840Z,19.10
2018-09-03T14:01:38.546Z,19.20
2018-09-03T14:04:07.252Z,19.20
2018-09-03T14:06:35.938Z,19.10
2018-09-03T14:09:05.308Z,19.30
2018-09-03T14:11:33.955Z,19.60
2018-09-03T14:14:02.787Z,19.70
2018-09-03T14:16:31.516Z,19.60
2018-09-03T14:19:00.099Z,19.40
2018-09-03T14:21:28.761Z,19.60
2018-09-03T14:23:57.374Z,19.20
2018-09-03T14:26:26.003Z,19.20
2018-09-03T14:28:54.662Z,19.40
2018-09-03T14:31:23.528Z,19.60
2018-09-03T14:33:52.398Z,19.60
2018-09-03T14:36:21.009Z,19.60
2018-09-03T14:38:49.667Z,19.50
2018-09-03T14:41:18.308Z,19.40
2018-09-03T14:43:47.126Z,19.00
2018-09-03T14:46:15.826Z,19.20
2018-09-03T14:48:44.458Z,18.90
2018-09-03T14:51:13.103Z,19.20
2018-09-03T14:53:42.130Z,19.30
2018-09-03T14:56:10.847Z,19.40
2018-09-03T14:58:39.424Z,19.50
2018-09-03T15:01:08.069Z,19.40
2018-09-03T15:03:36.683Z,19.40
2018-09-03T15:06:05.435Z,19.50
2018-09-03T15:08:34.018Z,19.50
2018-09-03T15:11:02.620Z,19.30
2018-09-03T15:13:31.278Z,19.50
2018-09-03T15:16:00.006Z,19.70
2018-09-03T15:18:28.709Z,19.80
2018-09-03T15:20:57.383Z,19.60
2018-09-03T15:23:26.023Z,19.60
2018-09-03T15:25:54.662Z,19.60
2018-09-03T15:28:23.288Z,19.70
2018-09-03T15:30:51.970Z,19.80
2018-09-03T15:33:20.618Z,19.70
2018-09-03T15:35:49.531Z,19.40
2018-09-03T15:38:19.225Z,19.40
2018-09-03T15:40:47.840Z,19.60
2018-09-03T15:43:16.469Z,19.60
2018-09-03T15:45:45.095Z,19.50
2018-09-03T15:48:13.695Z,19.50
2018-09-03T15:50:42.272Z,19.30
2018-09-03T15:53:10.980Z,19.50
2018-09-03T15:55:39.585Z,19.40
2018-09-03T15:58:08.316Z,19.40
2018-09-03T16:00:36.957Z,19.40
2018-09-03T16:03:05.752Z,19.50
2018-09-03T16:05:34.290Z,19.60
2018-09-03T16:08:02.954Z,19.60
2018-09-03T16:10:31.568Z,19.70
2018-09-03T16:13:00.186Z,19.70
2018-09-03T16:15:28.768Z,19.60
2018-09-03T16:17:57.482Z,19.70
2018-09-03T16:20:26.119Z,19.70
2018-09-03T16:22:54.737Z,19.70
2018-09-03T16:25:23.481Z,19.70
2018-09-03T16:27:52.082Z,19.60
2018-09-03T16:30:20.719Z,19.60
2018-09-03T16:32:49.362Z,19.50
2018-09-03T16:35:18.178Z,19.60
2018-09-03T16:37:46.875Z,19.60
2018-09-03T16:40:15.525Z,19.60
2018-09-03T16:42:44.101Z,19.40
2018-09-03T16:45:12.744Z,19.20
2018-09-03T16:47:41.347Z,19.10
2018-09-03T16:50:10.054Z,19.10
2018-09-03T16:52:38.669Z,19.00
2018-09-03T16:55:07.383Z,18.80
2018-09-03T16:57:36.030Z,18.90
2018-09-03T17:00:04.912Z,18.90
2018-09-03T17:02:33.527Z,19.00
2018-09-03T17:05:02.214Z,19.00
2018-09-03T17:07:30.880Z,19.10
2018-09-03T17:09:59.451Z,19.00
2018-09-03T17:12:28.079Z,19.00
2018-09-03T17:14:56.741Z,19.00
2018-09-03T17:17:25.356Z,19.00
2018-09-03T17:19:54.006Z,18.90
2018-09-03T17:22:22.733Z,18.90
2018-09-03T17:24:51.441Z,18.90
2018-09-03T17:27:20.108Z,19.00
2018-09-03T17:29:48.836Z,18.80
2018-09-03T17:32:17.458Z,18.90
2018-09-03T17:34:46.171Z,19.00
2018-09-03T17:37:14.784Z,18.80
2018-09-03T17:39:43.426Z,18.80
2018-09-03T17:42:12.126Z,18.70
2018-09-03T17:44:40.755Z,18.70
2018-09-03T17:47:09.471Z,18.60
2018-09-03T17:49:38.216Z,18.70
2018-09-03T17:52:06.963Z,18.60
2018-09-03T17:54:35.594Z,18.80
2018-09-03T17:57:04.291Z,18.70
2018-09-03T17:59:33.043Z,18.60
2018-09-03T18:02:01.685Z,18.60
2018-09-03T18:04:30.310Z,18.70
2018-09-03T18:06:58.934Z,18.80
2018-09-03T18:09:27.574Z,18.70
2018-09-03T18:11:56.265Z,18.50
2018-09-03T18:14:24.906Z,18.50
2018-09-03T18:16:53.696Z,18.50
2018-09-03T18:19:22.402Z,18.50
2018-09-03T18:21:51.378Z,18.30
2018-09-03T18:24:20.067Z,18.20
2018-09-03T18:26:48.688Z,18.10
2018-09-03T18:29:17.316Z,18.00
2018-09-03T18:31:45.905Z,18.00
2018-09-03T18:34:14.535Z,17.90
2018-09-03T18:36:43.321Z,18.00
2018-09-03T18:39:11.969Z,18.10
2018-09-03T18:41:40.650Z,18.10
2018-09-03T18:44:09.422Z,18.00
2018-09-03T18:46:38.019Z,18.00
2018-09-03T18:49:06.724Z,17.90
2018-09-03T18:51:35.438Z,17.90
2018-09-03T18:54:04.169Z,17.70
2018-09-03T18:56:32.767Z,17.70
2018-09-03T18:59:01.571Z,17.70
2018-09-03T19:01:30.190Z,17.60
2018-09-03T19:03:58.849Z,17.40
2018-09-03T19:06:27.435Z,17.40
2018-09-03T19:08:56.046Z,17.30
2018-09-03T19:11:24.666Z,17.30
2018-09-03T19:13:53.264Z,17.40
2018-09-03T19:16:21.944Z,17.50
2018-09-03T19:18:50.630Z,17.40
2018-09-03T19:21:19.358Z,17.20
2018-09-03T19:23:47.970Z,17.20
2018-09-03T19:26:16.577Z,17.10
2018-09-03T19:28:45.161Z,17.00
2018-09-03T19:31:13.779Z,16.90
2018-09-03T19:33:42.472Z,16.90
2018-09-03T19:36:11.084Z,17.00
2018-09-03T19:38:39.709Z,17.10
2018-09-03T19:41:08.337Z,17.00
2018-09-03T19:43:36.974Z,16.80
2018-09-03T19:46:05.584Z,16.60
2018-09-03T19:48:34.186Z,16.70
2018-09-03T19:51:02.857Z,16.90
2018-09-03T19:53:31.553Z,16.80
2018-09-03T19:56:00.136Z,16.60
2018-09-03T19:58:28.711Z,16.70
2018-09-03T20:00:57.325Z,16.70
2018-09-03T20:03:25.970Z,16.30
2018-09-03T20:05:54.693Z,16.50
2018-09-03T20:08:23.449Z,16.70
2018-09-03T20:10:52.024Z,16.60
2018-09-03T20:13:20.694Z,16.60
2018-09-03T20:15:49.404Z,16.50
2018-09-03T20:18:17.985Z,16.40
2018-09-03T20:20:46.647Z,16.60
2018-09-03T20:23:15.241Z,16.50
2018-09-03T20:25:43.821Z,16.60
2018-09-03T20:28:12.394Z,16.60
2018-09-03T20:30:41.036Z,16.70
2018-09-03T20:33:09.775Z,16.60
2018-09-03T20:35:38.369Z,16.70
2018-09-03T20:38:07.011Z,16.70
2018-09-03T20:40:35.602Z,16.70
2018-09-03T20:43:04.347Z,16.70
2018-09-03T20:45:32.861Z,16.70
2018-09-03T20:48:01.532Z,16.80
2018-09-03T20:50:30.097Z,16.60
2018-09-03T20:52:58.785Z,16.60
2018-09-03T20:55:27.560Z,16.70
2018-09-03T20:57:56.192Z,16.60
2018-09-03T21:00:24.902Z,16.60
2018-09-03T21:02:53.678Z,16.70
2018-09-03T21:05:22.249Z,16.50
2018-09-03T21:07:50.836Z,16.50
2018-09-03T21:10:19.478Z,16.40
2018-09-03T21:12:48.042Z,16.30
2018-09-03T21:15:16.659Z,16.20
2018-09-03T21:17:45.253Z,16.20
2018-09-03T21:20:13.842Z,16.20
2018-09-03T21:22:42.460Z,16.20
2018-09-03T21:25:11.032Z,16.10
2018-09-03T21:27:39.696Z,15.70
2018-09-03T21:30:08.825Z,15.50
2018-09-03T21:32:37.440Z,15.20
2018-09-03T21:35:07.005Z,15.20
2018-09-03T21:37:35.931Z,15.30
2018-09-03T21:40:04.605Z,15.60
2018-09-03T21:42:33.242Z,15.70
2018-09-03T21:45:01.906Z,15.70
2018-09-03T21:47:30.458Z,15.20
2018-09-03T21:49:59.059Z,15.00
2018-09-03T21:52:27.647Z,15.10
2018-09-03T21:54:56.230Z,15.40
2018-09-03T21:57:24.820Z,15.50
2018-09-03T21:59:53.506Z,15.50
2018-09-03T22:02:22.097Z,15.70
2018-09-03T22:04:51.751Z,15.90
2018-09-03T22:07:20.316Z,15.90
2018-09-03T22:09:48.895Z,15.90
2018-09-03T22:12:17.639Z,15.80
2018-09-03T22:14:46.345Z,15.70
2018-09-03T22:17:14.918Z,15.80
2018-09-03T22:19:43.662Z,16.00
2018-09-03T22:22:12.246Z,15.80
2018-09-03T22:24:40.922Z,15.80
2018-09-03T22:27:09.505Z,15.80
2018-09-03T22:29:39.217Z,15.70
2018-09-03T22:32:07.794Z,15.60
2018-09-03T22:34:36.357Z,15.50
2018-09-03T22:37:05.073Z,15.60
2018-09-03T22:39:33.630Z,16.00
2018-09-03T22:42:02.218Z,15.90
2018-09-03T22:44:30.825Z,15.90
2018-09-03T22:46:59.401Z,16.10
2018-09-03T22:49:27.971Z,15.90
2018-09-03T22:51:56.586Z,15.90
2018-09-03T22:54:25.134Z,15.80
2018-09-03T22:56:53.750Z,15.70
2018-09-03T22:59:22.295Z,15.60
2018-09-03T23:01:50.885Z,15.70
2018-09-03T23:04:19.450Z,15.60
2018-09-03T23:06:48.061Z,15.80
2018-09-03T23:09:16.671Z,15.80
2018-09-03T23:11:45.320Z,15.40
2018-09-03T23:14:13.908Z,15.50
2018-09-03T23:16:42.553Z,15.70
2018-09-03T23:19:11.137Z,15.90
2018-09-03T23:21:39.744Z,16.00
2018-09-03T23:24:08.345Z,16.10
2018-09-03T23:26:36.963Z,16.20
2018-09-03T23:29:05.574Z,16.30
2018-09-03T23:31:34.182Z,16.40
2018-09-03T23:34:02.756Z,16.40
2018-09-03T23:36:31.333Z,16.50
2018-09-03T23:38:59.914Z,16.50
2018-09-03T23:41:28.500Z,16.40
2018-09-03T23:43:57.077Z,16.30
2018-09-03T23:46:25.651Z,16.20
2018-09-03T23:48:54.245Z,16.40
2018-09-03T23:51:22.852Z,16.40
2018-09-03T23:53:51.502Z,16.40
2018-09-03T23:56:20.100Z,16.40
2018-09-03T23:58:49.805Z,16.60
